Terminal Aerodrome Forecast
Issued by NWS

Home | Current Version | Previous Version | Text Only | Print | Product List | Glossary On
Versions: 1 2 3 4 5 6 7 8 9 10 11 12 13
000
FTUS46 KLOX 200500
TAFWJF
TAF
KWJF 200533Z 2006/2106 26014KT P6SM SCT200
     FM200800 21005KT P6SM SKC
     FM201400 VRB03KT P6SM SKC
     FM201800 29005KT P6SM SKC
     FM202000 23010KT P6SM SKC
     FM202200 24018G25KT P6SM SKC
     FM210400 24010KT P6SM SKC=

USA.gov is the U.S. government's official web portal to all federal, state and local government web resources and services.